Phoenix Cross — MRBQ7 — position and weather

sailwx.info

Track history (hours):
 
Tides and Currents Weather Stations Pressure Air Temp Water Temp Dewpoint Dewpoint Depression Visibility Wind Speed Wind Dir Waves Ship Positions

Phoenix Cross

Last reported at 2014-Oct-01 17:22 UTC. Time now 2014-Oct-01 22:28 UTC.
Position N 54°35' W 001°13'.

Length 30 m; draft 5 m.

Type: Ship. MMSI: 235067452.

Date/timePositionNaut miles runAvg speedWind from/ knotsBaromVisibWave heightAir tempDewpointWater temp
2014-Oct-01 17:22N 54°35' W 001°13'0 0.0
2014-Oct-01 16:32N 54°35' W 001°13'0 0.0
2014-Oct-01 15:31N 54°35' W 001°13'0 0.0
2014-Oct-01 14:32N 54°35' W 001°13'0 0.0
2014-Oct-01 13:32N 54°35' W 001°13'0 0.0
2014-Oct-01 12:33N 54°35' W 001°13'0 0.0
2014-Oct-01 11:33N 54°35' W 001°13'0 0.0
2014-Oct-01 10:33N 54°35' W 001°13'0 0.0
2014-Oct-01 09:33N 54°35' W 001°13'0 0.0
2014-Oct-01 08:32N 54°35' W 001°13'0 0.0
2014-Oct-01 07:34N 54°35' W 001°13'0 0.0
2014-Oct-01 06:32N 54°35' W 001°13'0 0.0
2014-Oct-01 05:33N 54°35' W 001°13'0 0.0
2014-Sep-30 17:33N 54°35' W 001°13'0 0.0
2014-Sep-30 16:33N 54°35' W 001°13'0 0.0
2014-Sep-30 15:34N 54°35' W 001°13'0 0.0
2014-Sep-30 14:30N 54°35' W 001°13'0 0.0
2014-Sep-30 13:32N 54°35' W 001°13'0 0.0
2014-Sep-30 12:33N 54°35' W 001°13'0 0.0
2014-Sep-30 11:33N 54°35' W 001°13'0 0.0
2014-Sep-30 10:31N 54°35' W 001°13'0 0.0
2014-Sep-30 09:32N 54°35' W 001°13'0 0.0
2014-Sep-30 08:31N 54°35' W 001°13'0 0.0
2014-Sep-30 07:32N 54°35' W 001°13'0 0.0
2014-Sep-30 06:34N 54°35' W 001°13'2 1.4
2014-Sep-30 05:13N 54°36' W 001°10'3 0.2
2014-Sep-29 18:31N 54°39' W 001°09'4 1.8
2014-Sep-29 16:34N 54°35' W 001°11'1 0.8
2014-Sep-29 15:32N 54°35' W 001°13'0 0.0
2014-Sep-29 14:32N 54°35' W 001°13'0 0.0
2014-Sep-29 13:33N 54°35' W 001°13'0 0.0
2014-Sep-29 12:33N 54°35' W 001°13'0 0.0
2014-Sep-29 11:32N 54°35' W 001°13'0 0.0
2014-Sep-29 10:32N 54°35' W 001°13'0 0.0
2014-Sep-29 09:34N 54°35' W 001°13'0 0.0
2014-Sep-29 08:32N 54°35' W 001°13'0 0.0
2014-Sep-29 07:33N 54°35' W 001°13'0 0.0
2014-Sep-28 17:14N 54°35' W 001°13'3 4.9
2014-Sep-28 16:33N 54°38' W 001°10'3 3.0
2014-Sep-28 15:30N 54°35' W 001°12'0 0.3
2014-Sep-28 14:31N 54°35' W 001°13'0 0.0
2014-Sep-28 13:33N 54°35' W 001°13'0 0.0
2014-Sep-28 12:34N 54°35' W 001°13'0 0.0
2014-Sep-28 11:28N 54°35' W 001°13'0 0.0
2014-Sep-28 10:31N 54°35' W 001°13'0 0.0
2014-Sep-28 09:29N 54°35' W 001°13'0 0.0
2014-Sep-28 08:34N 54°35' W 001°13'0 0.0
2014-Sep-28 07:33N 54°35' W 001°13'3 3.2
2014-Sep-28 06:32N 54°38' W 001°10'0 0.4
2014-Sep-28 05:33N 54°37' W 001°09'3 0.3
2014-Sep-27 17:26N 54°35' W 001°13'0 0.0
2014-Sep-27 16:32N 54°35' W 001°13'0 0.0
2014-Sep-27 15:33N 54°35' W 001°13'0 0.0
2014-Sep-27 14:33N 54°35' W 001°13'0 0.0
2014-Sep-27 13:33N 54°35' W 001°13'0 0.0
2014-Sep-27 12:31N 54°35' W 001°13'0 0.0
2014-Sep-27 11:31N 54°35' W 001°13'0 0.0
2014-Sep-27 10:33N 54°35' W 001°13'0 0.0
2014-Sep-27 09:32N 54°35' W 001°13'0 0.0
2014-Sep-27 08:31N 54°35' W 001°13'0 0.0
2014-Sep-27 07:33N 54°35' W 001°13'0 0.0
2014-Sep-27 06:32N 54°35' W 001°13'0 0.0
2014-Sep-27 05:15N 54°35' W 001°13'0 0.0
2014-Sep-26 17:19N 54°35' W 001°13'0 0.0
2014-Sep-26 16:32N 54°35' W 001°13'0 0.0
2014-Sep-26 15:31N 54°35' W 001°13'0 0.0
2014-Sep-26 14:30N 54°35' W 001°13'0 0.0
2014-Sep-26 13:09N 54°35' W 001°13'0 0.0
2014-Sep-26 12:32N 54°35' W 001°13'0 0.0
2014-Sep-26 11:33N 54°35' W 001°13'0 0.0
2014-Sep-26 09:27N 54°35' W 001°13'0 0.0
2014-Sep-26 08:33N 54°35' W 001°13'0 0.0
2014-Sep-26 07:32N 54°35' W 001°13'3 3.1
2014-Sep-26 06:33N 54°37' W 001°09'3 2.3
2014-Sep-26 05:14N 54°35' W 001°13'1 0.1
2014-Sep-25 17:26N 54°35' W 001°14'1 1.3
2014-Sep-25 16:33N 54°35' W 001°13'0 0.0
2014-Sep-25 15:33N 54°35' W 001°13'0 0.0
2014-Sep-25 14:31N 54°35' W 001°13'0 0.0
2014-Sep-25 13:33N 54°35' W 001°13'0 0.0
2014-Sep-25 12:33N 54°35' W 001°13'0 0.0
2014-Sep-25 11:20N 54°35' W 001°13'0 0.0
2014-Sep-25 10:33N 54°35' W 001°13'0 0.0
2014-Sep-25 09:33N 54°35' W 001°13'1 0.9
2014-Sep-25 08:30N 54°35' W 001°11'2 2.4
2014-Sep-25 07:33N 54°37' W 001°10'1 1.4
2014-Sep-25 06:32N 54°39' W 001°09'4 3.5
2014-Sep-25 05:16N 54°35' W 001°13'0 0.0
2014-Sep-24 17:32N 54°35' W 001°13'0 0.0
2014-Sep-24 16:34N 54°35' W 001°13'0 0.0
2014-Sep-24 15:33N 54°35' W 001°13'0 0.0
2014-Sep-24 14:33N 54°35' W 001°13'0 0.0
2014-Sep-24 13:33N 54°35' W 001°13'0 0.0
2014-Sep-24 12:33N 54°35' W 001°13'0 0.0
2014-Sep-24 11:34N 54°35' W 001°13'0 0.0
2014-Sep-24 10:33N 54°35' W 001°13'0 0.0
2014-Sep-24 09:32N 54°35' W 001°13'0 0.0
2014-Sep-24 08:33N 54°35' W 001°13'0 0.0
2014-Sep-24 07:33N 54°35' W 001°13'0 0.0
2014-Sep-24 05:06N 54°35' W 001°13'0 0.0
2014-Sep-23 17:30N 54°35' W 001°13'0 0.0
2014-Sep-23 16:32N 54°35' W 001°13'0 0.0
2014-Sep-23 15:33N 54°35' W 001°13'0 0.0
2014-Sep-23 14:32N 54°35' W 001°13'0 0.0
2014-Sep-23 13:33N 54°35' W 001°13'0 0.0
2014-Sep-23 12:32N 54°35' W 001°13'0 0.0
2014-Sep-23 11:34N 54°35' W 001°13'0 0.0
2014-Sep-23 10:33N 54°35' W 001°13'0 0.0
2014-Sep-23 09:33N 54°35' W 001°13'0 0.0
2014-Sep-23 08:33N 54°35' W 001°13'0 0.0
2014-Sep-23 07:34N 54°35' W 001°13'2 2.4
2014-Sep-23 06:33N 54°36' W 001°10'2 1.8
2014-Sep-23 05:33N 54°35' W 001°12'1 0.1
2014-Sep-22 17:33N 54°35' W 001°13'0 0.0
2014-Sep-22 16:32N 54°35' W 001°13'0 0.0
2014-Sep-22 15:33N 54°35' W 001°13'0 0.0
2014-Sep-22 14:33N 54°35' W 001°13'0 0.0
2014-Sep-22 13:33N 54°35' W 001°13'0 0.0
2014-Sep-22 12:33N 54°35' W 001°13'0 0.0
2014-Sep-22 11:33N 54°35' W 001°13'0 0.0
2014-Sep-22 10:33N 54°35' W 001°13'0 0.0
2014-Sep-22 09:32N 54°35' W 001°13'0 0.0
2014-Sep-22 08:33N 54°35' W 001°13'0 0.0
2014-Sep-22 07:32N 54°35' W 001°13'0 0.0
2014-Sep-22 06:31N 54°35' W 001°13'  
Track history (hours):
 
Tides and Currents Weather Stations Pressure Air Temp Water Temp Dewpoint Dewpoint Depression Visibility Wind Speed Wind Dir Waves Ship Positions

Phoenix Cross

Last reported at 2014-Oct-01 17:22 UTC. Time now 2014-Oct-01 22:28 UTC.
Position N 54°35' W 001°13'.

Length 30 m; draft 5 m.

Type: Ship. MMSI: 235067452.

Date/timePositionNaut miles runAvg speedWind from/ knotsBaromVisibWave heightAir tempDewpointWater temp
2014-Oct-01 17:22N 54°35' W 001°13'0 0.0
2014-Oct-01 16:32N 54°35' W 001°13'0 0.0
2014-Oct-01 15:31N 54°35' W 001°13'0 0.0
2014-Oct-01 14:32N 54°35' W 001°13'0 0.0
2014-Oct-01 13:32N 54°35' W 001°13'0 0.0
2014-Oct-01 12:33N 54°35' W 001°13'0 0.0
2014-Oct-01 11:33N 54°35' W 001°13'0 0.0
2014-Oct-01 10:33N 54°35' W 001°13'0 0.0
2014-Oct-01 09:33N 54°35' W 001°13'0 0.0
2014-Oct-01 08:32N 54°35' W 001°13'0 0.0
2014-Oct-01 07:34N 54°35' W 001°13'0 0.0
2014-Oct-01 06:32N 54°35' W 001°13'0 0.0
2014-Oct-01 05:33N 54°35' W 001°13'0 0.0
2014-Sep-30 17:33N 54°35' W 001°13'0 0.0
2014-Sep-30 16:33N 54°35' W 001°13'0 0.0
2014-Sep-30 15:34N 54°35' W 001°13'0 0.0
2014-Sep-30 14:30N 54°35' W 001°13'0 0.0
2014-Sep-30 13:32N 54°35' W 001°13'0 0.0
2014-Sep-30 12:33N 54°35' W 001°13'0 0.0
2014-Sep-30 11:33N 54°35' W 001°13'0 0.0
2014-Sep-30 10:31N 54°35' W 001°13'0 0.0
2014-Sep-30 09:32N 54°35' W 001°13'0 0.0
2014-Sep-30 08:31N 54°35' W 001°13'0 0.0
2014-Sep-30 07:32N 54°35' W 001°13'0 0.0
2014-Sep-30 06:34N 54°35' W 001°13'2 1.4
2014-Sep-30 05:13N 54°36' W 001°10'3 0.2
2014-Sep-29 18:31N 54°39' W 001°09'4 1.8
2014-Sep-29 16:34N 54°35' W 001°11'1 0.8
2014-Sep-29 15:32N 54°35' W 001°13'0 0.0
2014-Sep-29 14:32N 54°35' W 001°13'0 0.0
2014-Sep-29 13:33N 54°35' W 001°13'0 0.0
2014-Sep-29 12:33N 54°35' W 001°13'0 0.0
2014-Sep-29 11:32N 54°35' W 001°13'0 0.0
2014-Sep-29 10:32N 54°35' W 001°13'0 0.0
2014-Sep-29 09:34N 54°35' W 001°13'0 0.0
2014-Sep-29 08:32N 54°35' W 001°13'0 0.0
2014-Sep-29 07:33N 54°35' W 001°13'0 0.0
2014-Sep-28 17:14N 54°35' W 001°13'3 4.9
2014-Sep-28 16:33N 54°38' W 001°10'3 3.0
2014-Sep-28 15:30N 54°35' W 001°12'0 0.3
2014-Sep-28 14:31N 54°35' W 001°13'0 0.0
2014-Sep-28 13:33N 54°35' W 001°13'0 0.0
2014-Sep-28 12:34N 54°35' W 001°13'0 0.0
2014-Sep-28 11:28N 54°35' W 001°13'0 0.0
2014-Sep-28 10:31N 54°35' W 001°13'0 0.0
2014-Sep-28 09:29N 54°35' W 001°13'0 0.0
2014-Sep-28 08:34N 54°35' W 001°13'0 0.0
2014-Sep-28 07:33N 54°35' W 001°13'3 3.2
2014-Sep-28 06:32N 54°38' W 001°10'0 0.4
2014-Sep-28 05:33N 54°37' W 001°09'3 0.3
2014-Sep-27 17:26N 54°35' W 001°13'0 0.0
2014-Sep-27 16:32N 54°35' W 001°13'0 0.0
2014-Sep-27 15:33N 54°35' W 001°13'0 0.0
2014-Sep-27 14:33N 54°35' W 001°13'0 0.0
2014-Sep-27 13:33N 54°35' W 001°13'0 0.0
2014-Sep-27 12:31N 54°35' W 001°13'0 0.0
2014-Sep-27 11:31N 54°35' W 001°13'0 0.0
2014-Sep-27 10:33N 54°35' W 001°13'0 0.0
2014-Sep-27 09:32N 54°35' W 001°13'0 0.0
2014-Sep-27 08:31N 54°35' W 001°13'0 0.0
2014-Sep-27 07:33N 54°35' W 001°13'0 0.0
2014-Sep-27 06:32N 54°35' W 001°13'0 0.0
2014-Sep-27 05:15N 54°35' W 001°13'0 0.0
2014-Sep-26 17:19N 54°35' W 001°13'0 0.0
2014-Sep-26 16:32N 54°35' W 001°13'0 0.0
2014-Sep-26 15:31N 54°35' W 001°13'0 0.0
2014-Sep-26 14:30N 54°35' W 001°13'0 0.0
2014-Sep-26 13:09N 54°35' W 001°13'0 0.0
2014-Sep-26 12:32N 54°35' W 001°13'0 0.0
2014-Sep-26 11:33N 54°35' W 001°13'0 0.0
2014-Sep-26 09:27N 54°35' W 001°13'0 0.0
2014-Sep-26 08:33N 54°35' W 001°13'0 0.0
2014-Sep-26 07:32N 54°35' W 001°13'3 3.1
2014-Sep-26 06:33N 54°37' W 001°09'3 2.3
2014-Sep-26 05:14N 54°35' W 001°13'1 0.1
2014-Sep-25 17:26N 54°35' W 001°14'1 1.3
2014-Sep-25 16:33N 54°35' W 001°13'0 0.0
2014-Sep-25 15:33N 54°35' W 001°13'0 0.0
2014-Sep-25 14:31N 54°35' W 001°13'0 0.0
2014-Sep-25 13:33N 54°35' W 001°13'0 0.0
2014-Sep-25 12:33N 54°35' W 001°13'0 0.0
2014-Sep-25 11:20N 54°35' W 001°13'0 0.0
2014-Sep-25 10:33N 54°35' W 001°13'0 0.0
2014-Sep-25 09:33N 54°35' W 001°13'1 0.9
2014-Sep-25 08:30N 54°35' W 001°11'2 2.4
2014-Sep-25 07:33N 54°37' W 001°10'1 1.4
2014-Sep-25 06:32N 54°39' W 001°09'4 3.5
2014-Sep-25 05:16N 54°35' W 001°13'0 0.0
2014-Sep-24 17:32N 54°35' W 001°13'0 0.0
2014-Sep-24 16:34N 54°35' W 001°13'0 0.0
2014-Sep-24 15:33N 54°35' W 001°13'0 0.0
2014-Sep-24 14:33N 54°35' W 001°13'0 0.0
2014-Sep-24 13:33N 54°35' W 001°13'0 0.0
2014-Sep-24 12:33N 54°35' W 001°13'0 0.0
2014-Sep-24 11:34N 54°35' W 001°13'0 0.0
2014-Sep-24 10:33N 54°35' W 001°13'0 0.0
2014-Sep-24 09:32N 54°35' W 001°13'0 0.0
2014-Sep-24 08:33N 54°35' W 001°13'0 0.0
2014-Sep-24 07:33N 54°35' W 001°13'0 0.0
2014-Sep-24 05:06N 54°35' W 001°13'0 0.0
2014-Sep-23 17:30N 54°35' W 001°13'0 0.0
2014-Sep-23 16:32N 54°35' W 001°13'0 0.0
2014-Sep-23 15:33N 54°35' W 001°13'0 0.0
2014-Sep-23 14:32N 54°35' W 001°13'0 0.0
2014-Sep-23 13:33N 54°35' W 001°13'0 0.0
2014-Sep-23 12:32N 54°35' W 001°13'0 0.0
2014-Sep-23 11:34N 54°35' W 001°13'0 0.0
2014-Sep-23 10:33N 54°35' W 001°13'0 0.0
2014-Sep-23 09:33N 54°35' W 001°13'0 0.0
2014-Sep-23 08:33N 54°35' W 001°13'0 0.0
2014-Sep-23 07:34N 54°35' W 001°13'2 2.4
2014-Sep-23 06:33N 54°36' W 001°10'2 1.8
2014-Sep-23 05:33N 54°35' W 001°12'1 0.1
2014-Sep-22 17:33N 54°35' W 001°13'0 0.0
2014-Sep-22 16:32N 54°35' W 001°13'0 0.0
2014-Sep-22 15:33N 54°35' W 001°13'0 0.0
2014-Sep-22 14:33N 54°35' W 001°13'0 0.0
2014-Sep-22 13:33N 54°35' W 001°13'0 0.0
2014-Sep-22 12:33N 54°35' W 001°13'0 0.0
2014-Sep-22 11:33N 54°35' W 001°13'0 0.0
2014-Sep-22 10:33N 54°35' W 001°13'0 0.0
2014-Sep-22 09:32N 54°35' W 001°13'0 0.0
2014-Sep-22 08:33N 54°35' W 001°13'0 0.0
2014-Sep-22 07:32N 54°35' W 001°13'0 0.0
2014-Sep-22 06:31N 54°35' W 001°13'  

Dump ship's entire track history